Time;durP1;ratioP1;P1;durP2;ratioP2;P2;SDS_P1;SDS_P2;PMS_P1;PMS_P2;Temp;Humidity;BMP_temperature;BMP_pressure;BME280_temperature;BME280_humidity;BME280_pressure;Samples;Min_cycle;Max_cycle;Signal;HPM_P1;HPM_P2
2023/11/20 00:02:10;;;;;;;55.77;2.03;;;;;;;;;;5053130;28;20466;-72
2023/11/20 00:04:37;;;;;;;55.70;1.90;;;;;;;;;;5052779;28;20461;-72
2023/11/20 00:07:05;;;;;;;55.33;1.70;;;;;;;;;;5051485;28;20481;-72
2023/11/20 00:09:34;;;;;;;55.80;1.90;;;;;;;;;;5052956;28;20462;-72
2023/11/20 00:12:01;;;;;;;55.70;1.80;;;;;;;;;;5052979;28;20479;-72
2023/11/20 00:14:28;;;;;;;55.97;2.00;;;;;;;;;;5053034;28;20491;-72
2023/11/20 00:16:56;;;;;;;55.40;2.00;;;;;;;;;;5052818;28;20447;-72
2023/11/20 00:19:24;;;;;;;55.87;2.00;;;;;;;;;;5052583;28;20478;-72
2023/11/20 00:21:51;;;;;;;55.80;2.00;;;;;;;;;;5053062;28;20558;-72
2023/11/20 00:24:18;;;;;;;56.00;1.80;;;;;;;;;;5052596;28;20451;-72
2023/11/20 00:26:46;;;;;;;55.37;2.00;;;;;;;;;;5052656;28;20451;-72
2023/11/20 00:29:13;;;;;;;55.77;1.90;;;;;;;;;;5052409;28;20454;-73
2023/11/20 00:31:40;;;;;;;55.53;2.20;;;;;;;;;;5052328;28;20592;-72
2023/11/20 00:34:08;;;;;;;56.00;2.10;;;;;;;;;;5052786;28;20490;-71
2023/11/20 00:36:35;;;;;;;55.77;1.87;;;;;;;;;;5052654;28;20489;-71
2023/11/20 00:39:02;;;;;;;55.57;1.93;;;;;;;;;;5052271;28;20451;-71
2023/11/20 00:41:34;;;;;;;56.00;2.37;;;;;;;;;;5052137;28;20466;-72
2023/11/20 00:44:02;;;;;;;55.57;2.20;;;;;;;;;;5052313;28;20935;-72
2023/11/20 00:46:29;;;;;;;55.37;2.00;;;;;;;;;;5044239;28;20568;-72
2023/11/20 00:48:56;;;;;;;55.83;2.20;;;;;;;;;;5052237;28;20446;-72
2023/11/20 00:51:23;;;;;;;56.07;2.30;;;;;;;;;;5052031;28;20474;-72
2023/11/20 00:53:51;;;;;;;55.97;2.13;;;;;;;;;;5051923;28;21028;-72
2023/11/20 00:56:19;;;;;;;55.90;2.13;;;;;;;;;;5051740;28;20463;-72
2023/11/20 00:58:46;;;;;;;55.97;2.40;;;;;;;;;;5051801;28;20509;-72
2023/11/20 01:01:14;;;;;;;55.77;2.30;;;;;;;;;;5052254;28;20470;-71
2023/11/20 01:03:41;;;;;;;55.67;2.50;;;;;;;;;;5052067;28;20447;-72
2023/11/20 01:06:09;;;;;;;55.97;2.20;;;;;;;;;;5051847;28;20451;-72
2023/11/20 01:08:37;;;;;;;56.27;2.57;;;;;;;;;;5051726;28;20451;-72
2023/11/20 01:11:08;;;;;;;56.20;2.40;;;;;;;;;;5051650;28;20524;-71
2023/11/20 01:13:35;;;;;;;58.00;2.97;;;;;;;;;;5051730;28;20485;-71
2023/11/20 01:16:04;;;;;;;55.87;1.90;;;;;;;;;;5051544;28;20459;-71
2023/11/20 01:18:33;;;;;;;56.00;2.30;;;;;;;;;;5051228;28;20982;-71
2023/11/20 01:21:00;;;;;;;56.23;2.40;;;;;;;;;;5051573;28;20462;-71
2023/11/20 01:23:27;;;;;;;55.73;2.33;;;;;;;;;;5051329;28;20446;-71
2023/11/20 01:25:55;;;;;;;55.57;1.80;;;;;;;;;;5051531;28;20517;-71
2023/11/20 01:28:22;;;;;;;55.90;2.00;;;;;;;;;;5051361;28;20455;-71
2023/11/20 01:30:50;;;;;;;56.60;2.60;;;;;;;;;;5051699;28;20468;-72
2023/11/20 01:33:17;;;;;;;55.80;2.20;;;;;;;;;;5051430;28;20450;-72
2023/11/20 01:35:46;;;;;;;55.73;2.13;;;;;;;;;;5051231;28;20961;-71
2023/11/20 01:38:14;;;;;;;55.77;2.23;;;;;;;;;;5051220;28;20456;-72
2023/11/20 01:40:41;;;;;;;55.83;2.27;;;;;;;;;;5051400;28;20451;-72
2023/11/20 01:43:08;;;;;;;55.80;2.10;;;;;;;;;;5051274;28;20455;-72
2023/11/20 01:45:35;;;;;;;55.77;2.40;;;;;;;;;;5051377;28;20933;-72
2023/11/20 01:48:02;;;;;;;55.87;2.17;;;;;;;;;;5051253;28;20534;-72
2023/11/20 01:50:32;;;;;;;56.10;2.30;;;;;;;;;;5051078;28;20443;-72
2023/11/20 01:53:01;;;;;;;55.80;2.03;;;;;;;;;;5051076;28;20531;-72
2023/11/20 01:55:28;;;;;;;55.70;1.80;;;;;;;;;;5051616;28;20513;-72
2023/11/20 01:57:56;;;;;;;55.77;2.30;;;;;;;;;;5051040;28;20449;-72
2023/11/20 02:00:24;;;;;;;55.80;2.10;;;;;;;;;;5051292;28;20991;-72
2023/11/20 02:02:51;;;;;;;56.20;2.30;;;;;;;;;;5051434;28;20467;-72
2023/11/20 02:05:19;;;;;;;55.80;2.00;;;;;;;;;;5051352;28;20450;-72
2023/11/20 02:07:46;;;;;;;55.50;1.90;;;;;;;;;;5051154;28;20508;-72
2023/11/20 02:10:14;;;;;;;56.20;2.80;;;;;;;;;;5051293;28;20460;-72
2023/11/20 02:12:41;;;;;;;55.67;2.00;;;;;;;;;;5050957;28;20467;-72
2023/11/20 02:15:09;;;;;;;55.90;1.90;;;;;;;;;;5050942;28;20486;-72
2023/11/20 02:17:36;;;;;;;55.93;2.33;;;;;;;;;;5051404;28;20451;-72
2023/11/20 02:20:04;;;;;;;56.77;2.87;;;;;;;;;;5050713;28;20843;-72
2023/11/20 02:22:31;;;;;;;55.50;2.10;;;;;;;;;;5050910;28;20550;-72
2023/11/20 02:24:58;;;;;;;55.80;2.20;;;;;;;;;;5051051;28;20450;-72
2023/11/20 02:30:14;;;;;;;55.80;2.17;;;;;;;;;;5009129;28;20441;-72
2023/11/20 02:32:43;;;;;;;56.07;1.90;;;;;;;;;;5012607;28;20464;-72
2023/11/20 02:35:16;;;;;;;55.73;1.93;;;;;;;;;;5012673;28;20497;-72
2023/11/20 02:37:43;;;;;;;55.67;2.40;;;;;;;;;;5012855;28;20449;-72
2023/11/20 02:40:11;;;;;;;55.87;2.17;;;;;;;;;;5012431;28;20457;-72
2023/11/20 02:42:38;;;;;;;63.90;3.87;;;;;;;;;;5012424;28;20473;-72
2023/11/20 02:45:06;;;;;;;55.67;2.30;;;;;;;;;;5012670;28;20457;-72
2023/11/20 02:47:35;;;;;;;55.67;2.00;;;;;;;;;;5012686;28;20449;-72
2023/11/20 02:50:03;;;;;;;56.77;2.30;;;;;;;;;;5012176;28;20570;-72
2023/11/20 02:52:30;;;;;;;55.80;2.00;;;;;;;;;;5012018;28;20464;-72
2023/11/20 02:54:58;;;;;;;55.47;1.97;;;;;;;;;;5012026;28;20488;-72
2023/11/20 02:57:26;;;;;;;55.80;2.30;;;;;;;;;;5012031;28;20554;-72
2023/11/20 02:59:53;;;;;;;55.53;1.90;;;;;;;;;;5012214;28;20488;-72
2023/11/20 03:02:20;;;;;;;54.73;1.90;;;;;;;;;;5054147;28;20841;-72
2023/11/20 03:04:49;;;;;;;55.87;2.00;;;;;;;;;;5054212;28;20458;-72
2023/11/20 03:07:16;;;;;;;55.80;1.93;;;;;;;;;;5054032;28;20984;-72
2023/11/20 03:09:43;;;;;;;56.50;2.40;;;;;;;;;;5053906;28;20653;-72
2023/11/20 03:12:10;;;;;;;54.70;1.80;;;;;;;;;;5053755;28;20465;-72
2023/11/20 03:14:37;;;;;;;56.37;2.10;;;;;;;;;;5054068;28;20485;-72
2023/11/20 03:17:04;;;;;;;55.20;1.90;;;;;;;;;;5054368;28;20462;-72
2023/11/20 03:19:31;;;;;;;55.07;1.90;;;;;;;;;;5053956;28;20504;-72
2023/11/20 03:22:00;;;;;;;56.40;3.80;;;;;;;;;;5053849;28;21006;-72
2023/11/20 03:24:27;;;;;;;55.77;2.10;;;;;;;;;;5053908;28;20526;-72
2023/11/20 03:26:54;;;;;;;55.40;1.93;;;;;;;;;;5053951;28;20464;-72
2023/11/20 03:29:21;;;;;;;55.33;2.30;;;;;;;;;;5053768;28;20451;-72
2023/11/20 03:31:48;;;;;;;55.40;2.10;;;;;;;;;;5053669;28;20482;-72
2023/11/20 03:34:15;;;;;;;55.47;2.00;;;;;;;;;;5053688;28;20459;-72
2023/11/20 03:36:42;;;;;;;55.57;1.90;;;;;;;;;;5053650;28;20451;-72
2023/11/20 03:39:11;;;;;;;55.00;1.97;;;;;;;;;;5053744;28;20469;-72
2023/11/20 03:41:38;;;;;;;55.47;2.30;;;;;;;;;;5045535;28;21009;-72
2023/11/20 03:44:06;;;;;;;55.33;2.43;;;;;;;;;;5053695;28;20455;-72
2023/11/20 03:46:33;;;;;;;55.57;2.00;;;;;;;;;;5053716;28;20760;-72
2023/11/20 03:49:01;;;;;;;56.40;2.77;;;;;;;;;;5053481;28;20548;-72
2023/11/20 03:51:28;;;;;;;56.70;2.30;;;;;;;;;;5053730;28;20472;-72
2023/11/20 03:53:55;;;;;;;55.90;1.83;;;;;;;;;;5053298;28;20886;-72
2023/11/20 03:56:23;;;;;;;55.77;2.10;;;;;;;;;;5053051;28;20495;-72
2023/11/20 03:58:50;;;;;;;55.70;1.87;;;;;;;;;;5052871;28;20931;-72
2023/11/20 04:01:17;;;;;;;55.80;1.90;;;;;;;;;;5052968;28;20480;-72
2023/11/20 04:03:44;;;;;;;55.73;1.90;;;;;;;;;;5052871;28;20458;-72
2023/11/20 04:06:12;;;;;;;55.70;1.93;;;;;;;;;;5052929;28;20936;-72
2023/11/20 04:08:39;;;;;;;55.53;1.83;;;;;;;;;;5053028;28;20455;-72
2023/11/20 04:11:06;;;;;;;55.60;2.00;;;;;;;;;;5052947;28;20483;-72
2023/11/20 04:13:34;;;;;;;55.27;1.87;;;;;;;;;;5052374;28;20451;-71
2023/11/20 04:16:01;;;;;;;55.70;2.00;;;;;;;;;;5052634;28;20490;-71
2023/11/20 04:18:29;;;;;;;55.90;2.47;;;;;;;;;;5052406;28;20461;-72
2023/11/20 04:20:57;;;;;;;55.37;1.90;;;;;;;;;;5052939;28;20471;-72
2023/11/20 04:23:24;;;;;;;56.30;2.17;;;;;;;;;;5052366;28;20455;-72
2023/11/20 04:25:51;;;;;;;56.10;3.40;;;;;;;;;;5052665;28;20451;-72
2023/11/20 04:28:18;;;;;;;55.67;1.90;;;;;;;;;;5052460;28;20824;-72
2023/11/20 04:30:46;;;;;;;62.80;2.43;;;;;;;;;;5052691;28;20446;-72
2023/11/20 04:33:13;;;;;;;55.43;2.00;;;;;;;;;;5052262;28;20453;-72
2023/11/20 04:35:42;;;;;;;55.47;1.63;;;;;;;;;;5052362;28;20863;-72
2023/11/20 04:38:09;;;;;;;55.47;2.57;;;;;;;;;;5052558;28;20455;-72
2023/11/20 04:40:36;;;;;;;55.37;2.00;;;;;;;;;;5052342;28;20461;-72
2023/11/20 04:43:03;;;;;;;55.90;1.97;;;;;;;;;;5052296;28;20456;-72
2023/11/20 04:45:31;;;;;;;57.60;2.70;;;;;;;;;;5052164;28;20645;-72
2023/11/20 04:48:00;;;;;;;55.87;1.80;;;;;;;;;;5052221;28;20458;-72
2023/11/20 04:50:27;;;;;;;55.27;1.83;;;;;;;;;;5052222;28;20464;-72
2023/11/20 04:52:54;;;;;;;55.60;1.60;;;;;;;;;;5051306;28;20987;-75
2023/11/20 04:55:21;;;;;;;55.70;1.70;;;;;;;;;;5052149;28;20490;-72
2023/11/20 04:57:48;;;;;;;55.70;2.00;;;;;;;;;;5052004;28;20939;-72
2023/11/20 05:00:15;;;;;;;55.60;1.87;;;;;;;;;;5052161;28;20473;-72
2023/11/20 05:02:42;;;;;;;55.57;1.87;;;;;;;;;;5051869;28;20507;-72
2023/11/20 05:05:11;;;;;;;55.40;2.30;;;;;;;;;;5051778;28;20454;-72
2023/11/20 05:07:38;;;;;;;55.80;1.73;;;;;;;;;;5051809;28;20449;-73
2023/11/20 05:10:06;;;;;;;55.87;2.20;;;;;;;;;;5051500;28;20470;-73
2023/11/20 05:12:33;;;;;;;55.70;1.80;;;;;;;;;;5051328;28;20878;-72
2023/11/20 05:15:00;;;;;;;56.17;2.40;;;;;;;;;;5051857;28;20577;-73
2023/11/20 05:17:28;;;;;;;55.60;1.90;;;;;;;;;;5051587;28;20452;-72
2023/11/20 05:19:56;;;;;;;56.40;3.47;;;;;;;;;;5051383;28;20948;-72
2023/11/20 05:22:24;;;;;;;55.80;1.83;;;;;;;;;;5051045;28;20504;-72
2023/11/20 05:24:51;;;;;;;55.73;1.93;;;;;;;;;;5051239;28;20457;-73
2023/11/20 05:27:18;;;;;;;55.60;1.90;;;;;;;;;;5051515;28;20452;-73
2023/11/20 05:29:46;;;;;;;55.40;2.10;;;;;;;;;;5051351;28;20447;-73
2023/11/20 05:32:13;;;;;;;55.67;2.03;;;;;;;;;;5051422;28;20476;-73
2023/11/20 05:34:40;;;;;;;55.77;2.43;;;;;;;;;;5051406;28;20451;-73
2023/11/20 05:37:07;;;;;;;55.53;1.97;;;;;;;;;;5051649;28;20446;-73
2023/11/20 05:39:36;;;;;;;55.60;1.73;;;;;;;;;;5051107;28;20454;-72
2023/11/20 05:42:03;;;;;;;55.80;1.90;;;;;;;;;;5051630;28;20467;-72
2023/11/20 05:44:30;;;;;;;55.90;2.00;;;;;;;;;;5051117;28;20904;-72
2023/11/20 05:46:57;;;;;;;55.87;2.27;;;;;;;;;;5051812;28;20825;-72
2023/11/20 05:49:24;;;;;;;55.53;1.80;;;;;;;;;;5051214;28;20822;-72
2023/11/20 05:51:53;;;;;;;55.70;2.10;;;;;;;;;;5051119;28;20498;-72
2023/11/20 05:54:20;;;;;;;55.40;1.90;;;;;;;;;;5051076;28;21000;-73
2023/11/20 05:56:48;;;;;;;55.07;1.70;;;;;;;;;;5051509;28;20486;-71
2023/11/20 05:59:15;;;;;;;55.90;1.80;;;;;;;;;;5051109;28;20473;-72
2023/11/20 06:01:43;;;;;;;55.70;2.07;;;;;;;;;;5043180;28;20471;-73
2023/11/20 06:04:12;;;;;;;55.93;2.10;;;;;;;;;;5051390;28;20451;-71
2023/11/20 06:06:40;;;;;;;55.47;1.90;;;;;;;;;;5055163;28;20449;-71
2023/11/20 06:09:10;;;;;;;55.37;1.80;;;;;;;;;;5055397;28;20458;-71
2023/11/20 06:11:37;;;;;;;55.87;1.70;;;;;;;;;;5055252;28;20477;-72
2023/11/20 06:14:05;;;;;;;55.80;1.73;;;;;;;;;;5055198;28;20453;-72
2023/11/20 06:16:33;;;;;;;55.90;1.90;;;;;;;;;;5055276;28;20490;-72
2023/11/20 06:19:00;;;;;;;55.67;2.00;;;;;;;;;;5054816;28;20936;-72
2023/11/20 06:21:27;;;;;;;56.00;2.60;;;;;;;;;;5054791;28;20481;-72
2023/11/20 06:23:55;;;;;;;55.57;1.80;;;;;;;;;;5055140;28;20830;-72
2023/11/20 06:26:22;;;;;;;55.37;1.87;;;;;;;;;;5055254;28;20459;-72
2023/11/20 06:28:49;;;;;;;55.80;1.90;;;;;;;;;;5055071;28;20442;-72
2023/11/20 06:31:18;;;;;;;55.70;2.30;;;;;;;;;;5054849;28;20471;-72
2023/11/20 06:33:45;;;;;;;55.90;2.40;;;;;;;;;;5054706;28;20447;-72
2023/11/20 06:36:12;;;;;;;55.80;1.90;;;;;;;;;;5054866;28;20995;-71
2023/11/20 06:38:39;;;;;;;56.10;2.20;;;;;;;;;;5054363;28;20835;-71
2023/11/20 06:41:07;;;;;;;55.57;1.90;;;;;;;;;;5054932;28;20471;-72
2023/11/20 06:43:34;;;;;;;54.87;1.90;;;;;;;;;;5054469;28;20492;-72
2023/11/20 06:46:02;;;;;;;55.33;2.07;;;;;;;;;;5054238;28;20455;-72
2023/11/20 06:48:31;;;;;;;55.70;1.97;;;;;;;;;;5054212;28;20961;-72
2023/11/20 06:50:58;;;;;;;55.37;1.83;;;;;;;;;;5054714;28;20477;-72
2023/11/20 06:53:26;;;;;;;55.17;1.90;;;;;;;;;;5054160;28;20455;-72
2023/11/20 06:55:53;;;;;;;70.10;2.83;;;;;;;;;;5054340;28;20542;-72
2023/11/20 06:58:20;;;;;;;55.50;2.03;;;;;;;;;;5053677;28;20465;-72
2023/11/20 07:00:48;;;;;;;56.47;2.43;;;;;;;;;;5053998;28;20931;-72
2023/11/20 07:03:15;;;;;;;55.30;1.60;;;;;;;;;;5054027;28;20977;-72
2023/11/20 07:05:44;;;;;;;56.00;2.43;;;;;;;;;;5053935;28;20939;-73
2023/11/20 07:08:14;;;;;;;54.93;1.90;;;;;;;;;;5054304;28;20808;-72
2023/11/20 07:10:41;;;;;;;55.23;2.07;;;;;;;;;;5053637;28;20465;-73
2023/11/20 07:13:08;;;;;;;55.47;2.10;;;;;;;;;;5054174;28;20445;-73
2023/11/20 07:15:35;;;;;;;55.17;1.83;;;;;;;;;;5053603;28;20483;-73
2023/11/20 07:18:02;;;;;;;57.07;1.90;;;;;;;;;;5053508;28;20451;-73
2023/11/20 07:20:29;;;;;;;55.70;1.90;;;;;;;;;;5054164;28;20457;-73
2023/11/20 07:22:58;;;;;;;55.47;1.80;;;;;;;;;;5053874;28;20803;-72
2023/11/20 07:25:25;;;;;;;55.57;2.00;;;;;;;;;;5053693;28;20462;-72
2023/11/20 07:27:52;;;;;;;55.80;2.10;;;;;;;;;;5053562;28;20452;-72
2023/11/20 07:30:19;;;;;;;55.73;1.90;;;;;;;;;;5053880;28;20464;-73
2023/11/20 07:32:46;;;;;;;54.97;1.67;;;;;;;;;;5053817;28;20465;-72
2023/11/20 07:35:14;;;;;;;56.20;2.93;;;;;;;;;;5053542;28;20447;-72
2023/11/20 07:37:41;;;;;;;57.70;2.10;;;;;;;;;;5053478;28;20889;-73
2023/11/20 07:40:11;;;;;;;55.10;1.87;;;;;;;;;;5053430;28;20821;-72
2023/11/20 07:42:38;;;;;;;56.10;2.23;;;;;;;;;;5053106;28;20839;-73
2023/11/20 07:45:06;;;;;;;55.87;1.80;;;;;;;;;;5053428;28;20448;-73
2023/11/20 07:47:33;;;;;;;55.63;1.77;;;;;;;;;;5053603;28;20448;-72
2023/11/20 07:50:00;;;;;;;55.27;1.70;;;;;;;;;;5053170;28;20466;-72
2023/11/20 07:52:27;;;;;;;55.47;1.87;;;;;;;;;;5053168;28;20479;-72
2023/11/20 07:54:54;;;;;;;55.70;1.73;;;;;;;;;;5052844;28;20481;-72
2023/11/20 07:57:23;;;;;;;55.30;2.00;;;;;;;;;;5053099;28;20497;-72
2023/11/20 07:59:51;;;;;;;55.23;1.70;;;;;;;;;;5045418;28;20493;-72
2023/11/20 08:02:18;;;;;;;55.47;1.80;;;;;;;;;;5052999;28;20470;-72
2023/11/20 08:04:45;;;;;;;55.40;1.70;;;;;;;;;;5052825;28;20457;-72
2023/11/20 08:07:13;;;;;;;55.30;1.73;;;;;;;;;;5053324;28;20447;-72
2023/11/20 08:09:40;;;;;;;55.17;1.90;;;;;;;;;;5052549;28;20470;-72
2023/11/20 08:12:07;;;;;;;55.27;1.70;;;;;;;;;;5053051;28;20474;-72
2023/11/20 08:14:36;;;;;;;55.70;1.83;;;;;;;;;;5052588;28;20445;-72
2023/11/20 08:17:03;;;;;;;55.87;2.10;;;;;;;;;;5052744;28;20516;-72
2023/11/20 08:19:30;;;;;;;55.97;1.97;;;;;;;;;;5052314;28;20466;-73
2023/11/20 08:21:57;;;;;;;55.70;2.00;;;;;;;;;;5052305;28;20474;-73
2023/11/20 08:24:24;;;;;;;55.73;2.07;;;;;;;;;;5052522;28;20917;-73
2023/11/20 08:26:52;;;;;;;55.70;1.70;;;;;;;;;;5052629;28;20469;-73
2023/11/20 08:29:19;;;;;;;55.43;1.77;;;;;;;;;;5051470;28;20785;-73
2023/11/20 08:31:48;;;;;;;55.57;1.67;;;;;;;;;;5052344;28;20474;-73
2023/11/20 08:34:15;;;;;;;55.50;1.90;;;;;;;;;;5052198;28;20446;-72
2023/11/20 08:36:44;;;;;;;57.70;2.30;;;;;;;;;;5051914;28;20490;-72
2023/11/20 08:39:12;;;;;;;55.60;1.87;;;;;;;;;;5052412;28;20497;-72
2023/11/20 08:41:39;;;;;;;55.63;1.97;;;;;;;;;;5052050;28;20468;-73
2023/11/20 08:44:07;;;;;;;55.37;1.80;;;;;;;;;;5052079;28;20459;-72
2023/11/20 08:46:34;;;;;;;55.77;2.00;;;;;;;;;;5051857;28;20948;-73
2023/11/20 08:49:02;;;;;;;55.67;2.00;;;;;;;;;;5051774;28;20451;-73
2023/11/20 08:51:30;;;;;;;55.17;1.70;;;;;;;;;;5052027;28;21057;-72
2023/11/20 08:53:57;;;;;;;55.67;1.47;;;;;;;;;;5051910;28;20443;-72
2023/11/20 08:56:25;;;;;;;55.33;1.90;;;;;;;;;;5052074;28;20523;-71
2023/11/20 08:58:52;;;;;;;55.77;1.70;;;;;;;;;;5051744;28;20453;-72
2023/11/20 09:01:29;;;;;;;55.57;1.80;;;;;;;;;;5051861;28;20477;-72
2023/11/20 09:03:56;;;;;;;55.50;1.90;;;;;;;;;;5051671;28;20451;-73
2023/11/20 09:06:25;;;;;;;56.40;2.20;;;;;;;;;;5051812;28;20446;-72
2023/11/20 09:08:52;;;;;;;55.63;1.90;;;;;;;;;;5043266;28;20470;-71
2023/11/20 09:11:19;;;;;;;61.97;2.73;;;;;;;;;;5051595;28;20463;-72
2023/11/20 09:13:46;;;;;;;55.50;1.80;;;;;;;;;;5051259;28;20452;-72
2023/11/20 09:16:13;;;;;;;55.23;1.60;;;;;;;;;;5051075;28;20487;-71
2023/11/20 09:18:41;;;;;;;55.87;1.80;;;;;;;;;;5051467;28;20452;-72
2023/11/20 09:21:08;;;;;;;55.80;2.30;;;;;;;;;;5051237;28;20509;-72
2023/11/20 09:23:36;;;;;;;55.37;1.83;;;;;;;;;;5051133;28;20455;-72
2023/11/20 09:26:04;;;;;;;58.83;2.20;;;;;;;;;;5051449;28;20452;-71
2023/11/20 09:28:31;;;;;;;55.90;2.10;;;;;;;;;;5051153;28;20454;-73
2023/11/20 09:30:59;;;;;;;55.60;1.83;;;;;;;;;;5051355;28;20472;-73
2023/11/20 09:33:26;;;;;;;55.57;2.00;;;;;;;;;;5051504;28;20554;-72
2023/11/20 09:35:54;;;;;;;55.27;1.90;;;;;;;;;;5051370;28;20443;-73
2023/11/20 09:38:21;;;;;;;55.90;1.70;;;;;;;;;;5051448;28;20462;-71
2023/11/20 09:40:50;;;;;;;55.67;1.60;;;;;;;;;;5050735;28;20439;-71
2023/11/20 09:43:19;;;;;;;55.73;2.10;;;;;;;;;;5050790;28;20542;-72
2023/11/20 09:45:47;;;;;;;55.77;1.80;;;;;;;;;;5050968;28;21010;-72
2023/11/20 09:48:15;;;;;;;55.80;1.87;;;;;;;;;;5050929;28;20451;-71
2023/11/20 09:50:43;;;;;;;55.70;1.87;;;;;;;;;;5050819;28;20455;-72
2023/11/20 09:53:11;;;;;;;56.77;2.63;;;;;;;;;;5051049;28;20927;-73
2023/11/20 09:55:38;;;;;;;55.73;1.83;;;;;;;;;;5050822;28;20901;-73
2023/11/20 09:58:07;;;;;;;55.87;1.90;;;;;;;;;;5050960;28;20487;-73
2023/11/20 10:00:35;;;;;;;57.30;2.30;;;;;;;;;;5051121;28;20452;-73
2023/11/20 10:03:02;;;;;;;55.80;1.90;;;;;;;;;;5050593;28;20460;-72
2023/11/20 10:05:33;;;;;;;55.60;1.70;;;;;;;;;;5050698;28;20839;-73
2023/11/20 10:08:01;;;;;;;55.77;1.80;;;;;;;;;;5051273;28;20546;-73
2023/11/20 10:10:29;;;;;;;55.53;1.50;;;;;;;;;;5050641;28;20470;-73
2023/11/20 10:12:59;;;;;;;55.80;1.90;;;;;;;;;;5050820;28;20451;-74
2023/11/20 10:15:28;;;;;;;55.47;1.90;;;;;;;;;;5050810;28;20443;-73
2023/11/20 10:17:55;;;;;;;58.33;2.10;;;;;;;;;;5050721;28;20487;-73
2023/11/20 10:20:22;;;;;;;55.83;1.80;;;;;;;;;;5050746;28;20843;-74
2023/11/20 10:22:49;;;;;;;55.67;1.80;;;;;;;;;;5050375;28;20470;-71
2023/11/20 10:25:17;;;;;;;55.60;1.80;;;;;;;;;;5050713;28;20544;-71
2023/11/20 10:27:44;;;;;;;55.77;1.80;;;;;;;;;;5050259;28;20539;-71
2023/11/20 10:30:13;;;;;;;55.87;1.90;;;;;;;;;;5050469;28;20454;-73
2023/11/20 10:32:43;;;;;;;55.77;1.90;;;;;;;;;;5050200;28;20475;-71
2023/11/20 10:35:14;;;;;;;55.83;2.03;;;;;;;;;;5050710;28;20464;-72
2023/11/20 10:37:52;;;;;;;55.80;2.03;;;;;;;;;;5050251;28;21013;-72
2023/11/20 10:40:19;;;;;;;60.77;2.00;;;;;;;;;;5050620;28;20501;-72
2023/11/20 10:42:47;;;;;;;55.67;1.90;;;;;;;;;;5050280;28;20472;-72
2023/11/20 10:45:14;;;;;;;56.30;2.60;;;;;;;;;;5050280;28;20449;-72
2023/11/20 10:47:41;;;;;;;55.67;2.07;;;;;;;;;;5050244;28;20450;-72
2023/11/20 10:50:12;;;;;;;55.77;1.70;;;;;;;;;;5050325;28;20475;-73
2023/11/20 10:52:41;;;;;;;55.87;2.00;;;;;;;;;;5052850;28;21054;-72
2023/11/20 10:55:11;;;;;;;55.90;2.03;;;;;;;;;;5054114;28;20443;-73
2023/11/20 10:57:39;;;;;;;55.87;2.00;;;;;;;;;;5054054;28;20556;-72
2023/11/20 11:00:10;;;;;;;56.03;1.97;;;;;;;;;;5053741;28;20451;-72
2023/11/20 11:02:38;;;;;;;55.37;1.87;;;;;;;;;;5053915;28;20796;-71
2023/11/20 11:05:09;;;;;;;56.27;1.90;;;;;;;;;;5053645;28;20450;-71
2023/11/20 11:07:39;;;;;;;56.20;1.80;;;;;;;;;;5054006;28;20479;-71
2023/11/20 11:10:10;;;;;;;55.67;1.83;;;;;;;;;;5053527;28;20954;-71
2023/11/20 11:12:41;;;;;;;56.07;2.03;;;;;;;;;;5053674;28;20979;-72
2023/11/20 11:15:12;;;;;;;55.63;1.97;;;;;;;;;;5054302;28;20456;-71
2023/11/20 11:17:45;;;;;;;55.87;2.00;;;;;;;;;;5054041;28;20490;-71
2023/11/20 11:20:13;;;;;;;56.00;1.90;;;;;;;;;;5053536;28;21037;-71
2023/11/20 11:22:46;;;;;;;55.93;1.90;;;;;;;;;;5053290;28;21069;-71
2023/11/20 11:25:14;;;;;;;56.10;2.10;;;;;;;;;;5053407;28;20470;-72
2023/11/20 11:27:45;;;;;;;55.77;1.90;;;;;;;;;;5053376;28;20541;-71
2023/11/20 11:30:13;;;;;;;55.90;1.90;;;;;;;;;;5053534;28;20454;-72
2023/11/20 11:32:54;;;;;;;55.97;2.20;;;;;;;;;;5053159;28;20478;-72
2023/11/20 11:35:32;;;;;;;55.93;1.90;;;;;;;;;;5053163;28;20451;-72
2023/11/20 11:38:04;;;;;;;56.07;2.13;;;;;;;;;;5052978;28;20484;-72
2023/11/20 11:40:39;;;;;;;56.10;2.00;;;;;;;;;;5053253;28;20448;-71
2023/11/20 11:43:08;;;;;;;56.20;2.00;;;;;;;;;;5053274;28;20475;-72
2023/11/20 11:45:35;;;;;;;55.97;2.00;;;;;;;;;;5052986;28;20888;-72
2023/11/20 11:48:02;;;;;;;56.07;2.30;;;;;;;;;;5052922;28;20938;-73
2023/11/20 11:50:29;;;;;;;55.90;1.93;;;;;;;;;;5053312;28;20446;-73
2023/11/20 11:52:57;;;;;;;55.87;1.80;;;;;;;;;;5052855;28;20442;-73
2023/11/20 11:55:26;;;;;;;56.00;1.97;;;;;;;;;;5052691;28;20508;-73
2023/11/20 11:57:54;;;;;;;55.90;1.87;;;;;;;;;;5052567;28;20548;-71
2023/11/20 12:00:22;;;;;;;55.83;1.90;;;;;;;;;;5052994;28;20456;-71
2023/11/20 12:03:01;;;;;;;55.90;1.90;;;;;;;;;;5052219;28;20478;-72
2023/11/20 12:05:29;;;;;;;55.57;1.90;;;;;;;;;;5052916;28;21037;-72
2023/11/20 12:07:56;;;;;;;55.47;1.70;;;;;;;;;;5052460;28;20439;-72
2023/11/20 12:10:41;;;;;;;55.77;2.00;;;;;;;;;;5052561;28;20458;-72
2023/11/20 12:13:11;;;;;;;55.67;2.23;;;;;;;;;;5052583;28;20459;-72
2023/11/20 12:15:39;;;;;;;55.70;2.00;;;;;;;;;;5052570;28;20547;-72
2023/11/20 12:18:11;;;;;;;58.40;2.00;;;;;;;;;;5052451;28;20498;-72
2023/11/20 12:20:39;;;;;;;55.77;2.00;;;;;;;;;;5052570;28;20449;-72
2023/11/20 12:23:09;;;;;;;55.87;1.80;;;;;;;;;;5052293;28;20449;-72
2023/11/20 12:25:39;;;;;;;56.70;1.90;;;;;;;;;;5051063;28;20456;-72
2023/11/20 12:28:08;;;;;;;56.00;1.80;;;;;;;;;;5051941;28;20447;-72
2023/11/20 12:30:37;;;;;;;55.17;1.60;;;;;;;;;;5051868;28;20451;-72
2023/11/20 12:33:04;;;;;;;55.77;2.00;;;;;;;;;;5043932;28;20864;-72
2023/11/20 12:35:32;;;;;;;55.70;1.70;;;;;;;;;;5052042;28;20441;-72
2023/11/20 12:38:00;;;;;;;55.57;1.80;;;;;;;;;;5051779;28;20900;-73
2023/11/20 12:40:27;;;;;;;56.07;2.20;;;;;;;;;;5052052;28;20458;-72
2023/11/20 12:42:54;;;;;;;56.70;3.43;;;;;;;;;;5051143;28;20476;-73
2023/11/20 12:45:21;;;;;;;56.30;2.30;;;;;;;;;;5052059;28;20505;-72
2023/11/20 12:47:50;;;;;;;56.17;2.30;;;;;;;;;;5052152;28;20454;-72
2023/11/20 12:50:17;;;;;;;56.17;1.90;;;;;;;;;;5052066;28;20452;-72
2023/11/20 12:52:45;;;;;;;55.97;1.90;;;;;;;;;;5052051;28;21009;-72
2023/11/20 12:55:12;;;;;;;56.10;1.90;;;;;;;;;;5051635;28;20466;-72
2023/11/20 12:57:39;;;;;;;55.87;1.93;;;;;;;;;;5051837;28;20544;-72
2023/11/20 13:00:10;;;;;;;55.83;1.93;;;;;;;;;;5051575;28;20441;-72
2023/11/20 13:02:37;;;;;;;56.07;1.90;;;;;;;;;;5051575;28;20546;-73
2023/11/20 13:05:10;;;;;;;56.17;2.03;;;;;;;;;;5051890;28;20455;-73
2023/11/20 13:07:39;;;;;;;55.50;2.00;;;;;;;;;;5051432;28;20453;-72
2023/11/20 13:10:08;;;;;;;55.67;1.87;;;;;;;;;;5051515;28;20465;-72
2023/11/20 13:12:36;;;;;;;55.93;2.00;;;;;;;;;;5051527;28;20538;-72
2023/11/20 13:15:04;;;;;;;56.07;2.10;;;;;;;;;;5050850;28;20453;-73
2023/11/20 13:17:31;;;;;;;55.87;2.03;;;;;;;;;;5051408;28;20564;-73
2023/11/20 13:19:58;;;;;;;56.07;2.10;;;;;;;;;;5051205;28;20452;-73
2023/11/20 13:22:27;;;;;;;55.90;1.90;;;;;;;;;;5051592;28;20473;-73
2023/11/20 13:24:54;;;;;;;56.67;2.13;;;;;;;;;;5051442;28;20459;-72
2023/11/20 13:27:23;;;;;;;55.87;1.90;;;;;;;;;;5051392;28;20455;-72
2023/11/20 13:30:09;;;;;;;56.77;2.00;;;;;;;;;;5051255;28;20939;-72
2023/11/20 13:32:36;;;;;;;55.67;1.80;;;;;;;;;;5051027;28;21034;-72
2023/11/20 13:35:03;;;;;;;55.90;1.90;;;;;;;;;;5051233;28;20985;-72
2023/11/20 13:37:34;;;;;;;55.57;2.10;;;;;;;;;;5051393;28;20489;-72
2023/11/20 13:40:02;;;;;;;56.63;2.27;;;;;;;;;;5050915;28;20474;-73
2023/11/20 13:42:30;;;;;;;56.10;2.07;;;;;;;;;;5051060;28;20477;-72
2023/11/20 13:44:57;;;;;;;55.47;1.93;;;;;;;;;;5050841;28;20507;-73
2023/11/20 13:47:24;;;;;;;56.00;1.90;;;;;;;;;;5051418;28;20464;-72
2023/11/20 13:49:52;;;;;;;55.87;1.80;;;;;;;;;;5051129;28;20470;-72
2023/11/20 13:52:19;;;;;;;55.87;2.00;;;;;;;;;;5051062;28;20475;-72
2023/11/20 13:54:47;;;;;;;55.73;1.80;;;;;;;;;;5050965;28;20451;-72
2023/11/20 13:57:14;;;;;;;56.00;1.90;;;;;;;;;;5050804;28;20452;-72
2023/11/20 13:59:41;;;;;;;56.20;1.70;;;;;;;;;;5050508;28;20818;-73
2023/11/20 14:02:08;;;;;;;56.00;1.90;;;;;;;;;;5050775;28;20842;-72
2023/11/20 14:04:36;;;;;;;55.77;1.80;;;;;;;;;;5050865;28;20455;-73
2023/11/20 14:07:03;;;;;;;56.00;2.17;;;;;;;;;;5050734;28;20436;-72
2023/11/20 14:09:31;;;;;;;55.77;1.90;;;;;;;;;;5050830;28;20451;-73
2023/11/20 14:11:59;;;;;;;55.67;1.87;;;;;;;;;;5050510;28;20476;-72
2023/11/20 14:14:27;;;;;;;56.03;2.23;;;;;;;;;;5065705;28;20535;-71
2023/11/20 14:16:55;;;;;;;56.00;1.73;;;;;;;;;;5067119;28;20441;-73
2023/11/20 14:19:22;;;;;;;56.00;1.93;;;;;;;;;;5073286;28;20484;-73
2023/11/20 14:21:49;;;;;;;55.73;1.77;;;;;;;;;;5073096;28;20470;-73
2023/11/20 14:24:16;;;;;;;55.90;1.90;;;;;;;;;;5070575;28;20945;-73
2023/11/20 14:26:43;;;;;;;56.07;2.00;;;;;;;;;;5057745;28;20554;-72
2023/11/20 14:29:12;;;;;;;56.00;2.20;;;;;;;;;;5060304;28;20444;-72
2023/11/20 14:31:39;;;;;;;55.83;1.80;;;;;;;;;;5076849;28;20526;-72
2023/11/20 14:34:09;;;;;;;56.07;2.10;;;;;;;;;;5078190;28;20457;-72
2023/11/20 14:36:36;;;;;;;56.10;1.80;;;;;;;;;;5077511;28;20453;-72
2023/11/20 14:39:03;;;;;;;55.97;2.03;;;;;;;;;;5076882;28;20467;-72